createdAt,value
2022-08-10T00:14:40.029Z,2.99
2022-08-10T00:29:40.110Z,3.49
2022-08-10T00:44:40.206Z,3.42
2022-08-10T00:59:57.668Z,2.51
2022-08-10T01:14:40.118Z,2.99
2022-08-10T01:29:40.105Z,3.13
2022-08-10T01:44:40.201Z,3.07
2022-08-10T01:59:40.187Z,3.55
2022-08-10T02:14:40.338Z,3.45
2022-08-10T02:29:42.469Z,2.84
2022-08-10T02:45:29.267Z,2.45
2022-08-10T02:59:41.924Z,1.91
2022-08-10T03:14:43.817Z,2.22
2022-08-10T03:30:29.681Z,2.32
2022-08-10T03:44:40.394Z,2.14
2022-08-10T03:59:40.393Z,2.36
2022-08-10T04:14:49.469Z,1.92
2022-08-10T04:29:40.512Z,2.14
2022-08-10T04:44:40.681Z,2.08
2022-08-10T04:59:40.675Z,2.32
2022-08-10T05:14:40.706Z,1.81
2022-08-10T05:29:40.701Z,2.86
2022-08-10T05:44:40.810Z,2.68
2022-08-10T06:00:30.732Z,2.33
2022-08-10T06:14:40.880Z,2.55
2022-08-10T06:29:41.100Z,2.63
2022-08-10T06:44:40.923Z,2.14
2022-08-10T06:59:41.282Z,2.57
2022-08-10T07:14:41.114Z,2.51
2022-08-10T07:29:53.560Z,2.45
2022-08-10T07:44:41.140Z,2.90
2022-08-10T07:59:41.390Z,2.59
2022-08-10T08:14:41.165Z,2.24
2022-08-10T08:29:41.204Z,3.21
2022-08-10T08:44:41.364Z,2.86
2022-08-10T08:59:41.365Z,3.32
2022-08-10T09:14:41.371Z,3.02
2022-08-10T09:29:41.586Z,3.66
2022-08-10T09:44:58.237Z,3.87
2022-08-10T10:00:01.609Z,4.69
2022-08-10T10:14:41.516Z,4.53
2022-08-10T10:29:57.174Z,5.53
2022-08-10T10:44:42.257Z,4.87
2022-08-10T10:59:55.714Z,3.55
2022-08-10T11:14:41.609Z,3.95
2022-08-10T11:29:49.482Z,3.49
2022-08-10T11:44:41.654Z,4.15
2022-08-10T11:59:41.840Z,3.68
2022-08-10T12:14:41.767Z,4.27
2022-08-10T12:29:41.855Z,3.41
2022-08-10T12:44:42.759Z,3.99
2022-08-10T12:59:43.463Z,4.06
2022-08-10T13:14:41.972Z,3.42
2022-08-10T13:29:42.253Z,4.11
2022-08-10T13:44:42.056Z,4.65
2022-08-10T14:00:35.062Z,3.60
2022-08-10T14:14:42.159Z,4.14
2022-08-10T14:29:42.239Z,4.38
2022-08-10T14:44:42.475Z,4.47
2022-08-10T15:00:24.111Z,4.00
2022-08-10T15:14:43.014Z,4.02
2022-08-10T15:29:57.203Z,4.19
2022-08-10T15:44:43.315Z,4.03
2022-08-10T15:59:43.500Z,3.20
2022-08-10T16:14:42.708Z,3.61
2022-08-10T16:29:55.664Z,3.92
2022-08-10T16:44:42.838Z,4.46
2022-08-10T16:59:42.722Z,4.90
2022-08-10T17:14:43.052Z,3.79
2022-08-10T17:29:58.586Z,4.96
2022-08-10T17:44:42.814Z,4.24
2022-08-10T17:59:42.793Z,4.61
2022-08-10T18:14:42.743Z,4.22
2022-08-10T18:29:42.968Z,4.34
2022-08-10T18:44:43.158Z,3.80
2022-08-10T19:00:07.838Z,3.67
2022-08-10T19:14:43.259Z,3.07
2022-08-10T19:30:11.360Z,3.37
2022-08-10T19:44:43.118Z,3.26
2022-08-10T20:00:15.706Z,2.36
2022-08-10T20:14:43.105Z,1.96
2022-08-10T20:29:58.204Z,2.48
2022-08-10T20:44:43.215Z,2.79
2022-08-10T21:00:04.660Z,3.14
2022-08-10T21:14:43.378Z,2.92
2022-08-10T21:29:43.206Z,2.86
2022-08-10T21:44:43.287Z,2.47
2022-08-10T21:59:43.379Z,2.51
2022-08-10T22:14:43.750Z,2.59
2022-08-10T22:29:43.621Z,2.73
2022-08-10T22:44:43.536Z,2.28
2022-08-10T22:59:43.470Z,2.43
2022-08-10T23:14:59.032Z,3.07
2022-08-10T23:30:09.509Z,3.16
2022-08-10T23:44:43.730Z,3.13
2022-08-10T23:59:43.791Z,2.31
